Terminal Aerodrome Forecast
Issued by NWS

Home | Current Version | Previous Version | Text Only | Print | Product List | Glossary On
Versions: 1 2 3 4 5 6 7 8 9 10 11 12 13
000
FTUS46 KSEW 270520
TAFPAE
TAF
KPAE 270520Z 2706/2806 36004KT P6SM SKC
     FM271100 01003KT P6SM SCT010
      TEMPO 2712/2716 BKN010
     FM272000 32006KT P6SM SKC=

USA.gov is the U.S. government's official web portal to all federal, state and local government web resources and services.